createdAt,value
2018-10-03T00:00:57.847Z,1022.38
2018-10-03T00:01:58.458Z,1022.33
2018-10-03T00:02:59.040Z,1022.27
2018-10-03T00:03:59.616Z,1022.28
2018-10-03T00:05:00.190Z,1022.29
2018-10-03T00:06:00.818Z,1022.33
2018-10-03T00:07:01.396Z,1022.24
2018-10-03T00:08:01.970Z,1022.32
2018-10-03T00:09:02.544Z,1022.31
2018-10-03T00:10:03.122Z,1022.24
2018-10-03T00:11:03.744Z,1022.32
2018-10-03T00:12:04.319Z,1022.22
2018-10-03T00:13:05.846Z,1022.27
2018-10-03T00:14:06.420Z,1022.28
2018-10-03T00:15:06.996Z,1022.27
2018-10-03T00:16:07.571Z,1022.30
2018-10-03T00:17:08.182Z,1022.23
2018-10-03T00:18:08.766Z,1022.18
2018-10-03T00:19:09.342Z,1022.23
2018-10-03T00:20:09.916Z,1022.26
2018-10-03T00:21:10.493Z,1022.23
2018-10-03T00:22:11.068Z,1022.27
2018-10-03T00:23:11.734Z,1022.29
2018-10-03T00:24:12.272Z,1022.28
2018-10-03T00:25:12.901Z,1022.28
2018-10-03T00:26:13.474Z,1022.37
2018-10-03T00:27:14.048Z,1022.29
2018-10-03T00:28:14.824Z,1022.31
2018-10-03T00:29:15.399Z,1022.22
2018-10-03T00:30:15.975Z,1022.25
2018-10-03T00:31:16.555Z,1022.29
2018-10-03T00:32:17.282Z,1022.36
2018-10-03T00:33:17.881Z,1022.28
2018-10-03T00:34:18.456Z,1022.22
2018-10-03T00:35:19.033Z,1022.28
2018-10-03T00:36:19.607Z,1022.27
2018-10-03T00:37:20.231Z,1022.26
2018-10-03T00:38:20.806Z,1022.27
2018-10-03T00:39:21.381Z,1022.26
2018-10-03T00:40:22.010Z,1022.20
2018-10-03T00:41:22.583Z,1022.19
2018-10-03T00:42:23.180Z,1022.28
2018-10-03T00:43:23.734Z,1022.19
2018-10-03T00:44:24.308Z,1022.20
2018-10-03T00:45:24.926Z,1022.21
2018-10-03T00:46:25.503Z,1022.21
2018-10-03T00:47:26.079Z,1022.16
2018-10-03T00:48:26.704Z,1022.23
2018-10-03T00:49:27.280Z,1022.19
2018-10-03T00:50:27.903Z,1022.22
2018-10-03T00:51:28.481Z,1022.25
2018-10-03T00:52:29.104Z,1022.19
2018-10-03T00:53:29.681Z,1022.21
2018-10-03T00:54:30.255Z,1022.31
2018-10-03T00:55:30.829Z,1022.19
2018-10-03T00:56:31.406Z,1022.25
2018-10-03T00:57:31.980Z,1022.22
2018-10-03T00:58:32.553Z,1022.19
2018-10-03T00:59:33.130Z,1022.17
2018-10-03T01:00:33.705Z,1022.20
2018-10-03T01:01:34.279Z,1022.21
2018-10-03T01:02:34.854Z,1022.15
2018-10-03T01:03:35.479Z,1022.12
2018-10-03T01:04:36.056Z,1022.24
2018-10-03T01:05:36.632Z,1022.17
2018-10-03T01:06:37.205Z,1022.17
2018-10-03T01:07:37.784Z,1022.14
2018-10-03T01:08:38.453Z,1022.13
2018-10-03T01:09:39.027Z,1022.13
2018-10-03T01:10:39.604Z,1022.13
2018-10-03T01:11:40.178Z,1022.13
2018-10-03T01:12:40.752Z,1022.16
2018-10-03T01:13:41.330Z,1022.17
2018-10-03T01:14:41.947Z,1022.16
2018-10-03T01:15:43.373Z,1022.14
2018-10-03T01:16:43.947Z,1022.16
2018-10-03T01:17:44.574Z,1022.16
2018-10-03T01:18:45.153Z,1022.13
2018-10-03T01:19:45.726Z,1022.17
2018-10-03T01:20:46.346Z,1022.13
2018-10-03T01:21:46.966Z,1022.15
2018-10-03T01:22:47.543Z,1022.14
2018-10-03T01:23:48.117Z,1022.17
2018-10-03T01:24:48.694Z,1022.17
2018-10-03T01:25:49.320Z,1022.11
2018-10-03T01:26:49.893Z,1022.11
2018-10-03T01:27:50.470Z,1022.17
2018-10-03T01:28:51.046Z,1022.19
2018-10-03T01:29:51.664Z,1022.20
2018-10-03T01:30:52.273Z,1022.12
2018-10-03T01:31:52.811Z,1022.12
2018-10-03T01:32:53.384Z,1022.23
2018-10-03T01:33:53.959Z,1022.21
2018-10-03T01:34:54.534Z,1022.21
2018-10-03T01:35:55.111Z,1022.21
2018-10-03T01:36:55.736Z,1022.21
2018-10-03T01:37:56.313Z,1022.24
2018-10-03T01:38:56.886Z,1022.18
2018-10-03T01:39:57.463Z,1022.23
2018-10-03T01:40:58.038Z,1022.21
2018-10-03T01:41:58.663Z,1022.18
2018-10-03T01:42:59.235Z,1022.24
2018-10-03T01:43:59.812Z,1022.21
2018-10-03T01:45:00.437Z,1022.21
2018-10-03T01:46:01.066Z,1022.24
2018-10-03T01:47:01.682Z,1022.18
2018-10-03T01:48:02.256Z,1022.23
2018-10-03T01:49:02.839Z,1022.22
2018-10-03T01:50:04.208Z,1022.29
2018-10-03T01:51:05.328Z,1022.17
2018-10-03T01:52:05.839Z,1022.20
2018-10-03T01:53:06.412Z,1022.23
2018-10-03T01:54:06.989Z,1022.18
2018-10-03T01:55:07.566Z,1022.16
2018-10-03T01:56:08.186Z,1022.18
2018-10-03T01:57:08.760Z,1022.18
2018-10-03T01:58:09.334Z,1022.23
2018-10-03T01:59:09.917Z,1022.17
2018-10-03T02:00:10.537Z,1022.13
2018-10-03T02:01:11.113Z,1022.21
2018-10-03T02:02:16.741Z,1022.14
2018-10-03T02:03:17.317Z,1022.14
2018-10-03T02:04:17.943Z,1022.17
2018-10-03T02:05:18.570Z,1022.18
2018-10-03T02:06:19.185Z,1022.11
2018-10-03T02:07:19.760Z,1022.16
2018-10-03T02:08:20.385Z,1022.14
2018-10-03T02:09:20.960Z,1022.11
2018-10-03T02:10:21.578Z,1022.06
2018-10-03T02:11:22.152Z,1022.11
2018-10-03T02:12:22.726Z,1022.11
2018-10-03T02:13:23.300Z,1022.09
2018-10-03T02:14:23.927Z,1022.17
2018-10-03T02:15:24.557Z,1022.11
2018-10-03T02:16:25.079Z,1022.06
2018-10-03T02:17:25.655Z,1022.06
2018-10-03T02:18:27.083Z,1022.08
2018-10-03T02:19:27.656Z,1022.05
2018-10-03T02:20:28.231Z,1022.11
2018-10-03T02:21:28.854Z,1022.07
2018-10-03T02:22:29.431Z,1022.09
2018-10-03T02:23:30.006Z,1022.04
2018-10-03T02:24:30.586Z,1022.09
2018-10-03T02:25:31.209Z,1022.03
2018-10-03T02:26:31.819Z,1022.06
2018-10-03T02:27:32.394Z,1022.09
2018-10-03T02:28:32.972Z,1022.06
2018-10-03T02:29:33.599Z,1022.10
2018-10-03T02:30:34.177Z,1022.10
2018-10-03T02:31:34.750Z,1022.11
2018-10-03T02:32:35.325Z,1022.03
2018-10-03T02:33:35.900Z,1022.01
2018-10-03T02:34:36.475Z,1022.08
2018-10-03T02:35:37.050Z,1022.04
2018-10-03T02:36:37.629Z,1022.10
2018-10-03T02:37:38.255Z,1022.05
2018-10-03T02:38:38.831Z,1022.05
2018-10-03T02:39:39.406Z,1022.07
2018-10-03T02:40:39.982Z,1022.03
2018-10-03T02:41:40.558Z,1022.05
2018-10-03T02:42:41.134Z,1022.01
2018-10-03T02:43:41.708Z,1022.05
2018-10-03T02:44:42.287Z,1022.10
2018-10-03T02:45:42.861Z,1022.04
2018-10-03T02:46:43.437Z,1022.14
2018-10-03T02:47:44.063Z,1022.10
2018-10-03T02:48:44.639Z,1022.05
2018-10-03T02:49:45.215Z,1022.14
2018-10-03T02:50:45.839Z,1022.02
2018-10-03T02:51:46.415Z,1022.11
2018-10-03T02:52:46.993Z,1022.05
2018-10-03T02:53:47.567Z,1022.06
2018-10-03T02:54:48.140Z,1022.04
2018-10-03T02:55:48.715Z,1022.02
2018-10-03T02:56:49.291Z,1022.10
2018-10-03T02:57:49.867Z,1021.98
2018-10-03T02:58:50.442Z,1021.96
2018-10-03T02:59:51.020Z,1022.07
2018-10-03T03:00:51.643Z,1022.00
2018-10-03T03:01:52.279Z,1021.97
2018-10-03T03:02:52.796Z,1022.01
2018-10-03T03:03:53.372Z,1022.00
2018-10-03T03:04:53.947Z,1022.02
2018-10-03T03:05:54.573Z,1021.93
2018-10-03T03:06:55.197Z,1021.94
2018-10-03T03:07:55.819Z,1021.91
2018-10-03T03:08:56.437Z,1021.95
2018-10-03T03:09:56.965Z,1021.95
2018-10-03T03:10:58.338Z,1021.95
2018-10-03T03:11:58.921Z,1021.99
2018-10-03T03:12:59.531Z,1022.06
2018-10-03T03:14:00.106Z,1021.91
2018-10-03T03:15:00.680Z,1021.92
2018-10-03T03:16:01.259Z,1021.95
2018-10-03T03:17:01.873Z,1021.91
2018-10-03T03:18:02.449Z,1021.91
2018-10-03T03:19:03.084Z,1021.98
2018-10-03T03:20:03.697Z,1021.91
2018-10-03T03:21:04.271Z,1021.89
2018-10-03T03:22:04.896Z,1021.91
2018-10-03T03:23:05.471Z,1021.88
2018-10-03T03:24:06.046Z,1021.88
2018-10-03T03:25:06.669Z,1021.87
2018-10-03T03:26:07.253Z,1021.95
2018-10-03T03:27:07.820Z,1021.95
2018-10-03T03:28:08.396Z,1021.88
2018-10-03T03:29:09.022Z,1021.90
2018-10-03T03:30:09.648Z,1021.92
2018-10-03T03:31:10.223Z,1021.92
2018-10-03T03:32:10.799Z,1021.85
2018-10-03T03:33:11.374Z,1021.90
2018-10-03T03:34:11.948Z,1021.85
2018-10-03T03:35:12.527Z,1021.82
2018-10-03T03:36:13.152Z,1021.86
2018-10-03T03:37:13.731Z,1021.92
2018-10-03T03:38:14.354Z,1021.90
2018-10-03T03:39:14.981Z,1021.84
2018-10-03T03:40:15.556Z,1021.93
2018-10-03T03:41:16.129Z,1021.91
2018-10-03T03:42:16.709Z,1021.88
2018-10-03T03:43:17.322Z,1021.89
2018-10-03T03:44:18.749Z,1021.83
2018-10-03T03:45:19.324Z,1021.80
2018-10-03T03:46:19.899Z,1021.88
2018-10-03T03:47:20.474Z,1021.80
2018-10-03T03:48:21.048Z,1021.78
2018-10-03T03:49:21.623Z,1021.87
2018-10-03T03:50:22.198Z,1021.84
2018-10-03T03:51:22.830Z,1021.80
2018-10-03T03:52:23.451Z,1021.79
2018-10-03T03:53:24.025Z,1021.78
2018-10-03T03:54:24.606Z,1021.89
2018-10-03T03:55:25.231Z,1021.77
2018-10-03T03:56:25.806Z,1021.80
2018-10-03T03:57:26.389Z,1021.86
2018-10-03T03:58:27.006Z,1021.79
2018-10-03T03:59:27.583Z,1021.82
2018-10-03T04:00:28.159Z,1021.84
2018-10-03T04:01:28.733Z,1021.85
2018-10-03T04:02:29.307Z,1021.88
2018-10-03T04:03:29.890Z,1021.90
2018-10-03T04:04:30.509Z,1021.89
2018-10-03T04:05:31.085Z,1021.87
2018-10-03T04:06:31.660Z,1021.91
2018-10-03T04:07:32.288Z,1021.90
2018-10-03T04:08:32.908Z,1021.89
2018-10-03T04:09:33.484Z,1021.94
2018-10-03T04:10:34.058Z,1021.92
2018-10-03T04:11:34.632Z,1021.90
2018-10-03T04:12:35.207Z,1021.89
2018-10-03T04:13:35.832Z,1021.94
2018-10-03T04:14:36.406Z,1021.88
2018-10-03T04:15:36.982Z,1021.93
2018-10-03T04:16:37.558Z,1021.86
2018-10-03T04:17:38.132Z,1021.86
2018-10-03T04:18:38.756Z,1021.94
2018-10-03T04:19:39.331Z,1021.94
2018-10-03T04:20:39.948Z,1021.91
2018-10-03T04:21:40.573Z,1021.84
2018-10-03T04:22:41.146Z,1021.90
2018-10-03T04:23:41.719Z,1021.88
2018-10-03T04:24:42.295Z,1021.88
2018-10-03T04:25:42.870Z,1021.94
2018-10-03T04:26:43.456Z,1021.85
2018-10-03T04:27:44.121Z,1021.90
2018-10-03T04:28:44.695Z,1021.94
2018-10-03T04:29:45.278Z,1021.95
2018-10-03T04:30:45.845Z,1021.89
2018-10-03T04:31:46.470Z,1021.94
2018-10-03T04:32:47.095Z,1021.87
2018-10-03T04:33:47.672Z,1021.94
2018-10-03T04:34:48.246Z,1021.92
2018-10-03T04:35:48.988Z,1021.91
2018-10-03T04:36:49.447Z,1022.01
2018-10-03T04:37:50.020Z,1022.06
2018-10-03T04:38:50.647Z,1021.94
2018-10-03T04:39:51.221Z,1021.98
2018-10-03T04:40:51.794Z,1021.91
2018-10-03T04:41:52.370Z,1021.94
2018-10-03T04:42:52.945Z,1021.96
2018-10-03T04:43:53.520Z,1021.96
2018-10-03T04:44:54.095Z,1021.96
2018-10-03T04:45:54.719Z,1021.94
2018-10-03T04:46:55.344Z,1021.97
2018-10-03T04:47:55.969Z,1022.01
2018-10-03T04:48:56.577Z,1022.02
2018-10-03T04:49:57.117Z,1022.06
2018-10-03T04:50:57.697Z,1022.05
2018-10-03T04:51:58.266Z,1022.09
2018-10-03T04:52:58.889Z,1022.05
2018-10-03T04:53:59.464Z,1022.05
2018-10-03T04:55:00.043Z,1022.01
2018-10-03T04:56:00.659Z,1022.07
2018-10-03T04:57:01.235Z,1022.03
2018-10-03T04:58:01.808Z,1022.04
2018-10-03T04:59:02.437Z,1022.06
2018-10-03T05:00:03.009Z,1022.11
2018-10-03T05:01:03.583Z,1022.06
2018-10-03T05:02:04.158Z,1022.06
2018-10-03T05:03:04.733Z,1022.09
2018-10-03T05:04:05.359Z,1022.07
2018-10-03T05:05:05.935Z,1022.01
2018-10-03T05:06:06.508Z,1022.03
2018-10-03T05:07:07.133Z,1022.02
2018-10-03T05:08:07.707Z,1022.01
2018-10-03T05:09:08.333Z,1021.99
2018-10-03T05:10:08.908Z,1022.01
2018-10-03T05:11:10.479Z,1021.99
2018-10-03T05:12:11.009Z,1022.04
2018-10-03T05:13:11.590Z,1022.03
2018-10-03T05:14:12.160Z,1021.94
2018-10-03T05:15:12.735Z,1022.00
2018-10-03T05:16:13.311Z,1021.95
2018-10-03T05:17:13.886Z,1022.02
2018-10-03T05:18:14.460Z,1021.94
2018-10-03T05:19:15.036Z,1021.92
2018-10-03T05:25:41.217Z,1021.98
2018-10-03T05:26:41.841Z,1022.06
2018-10-03T05:27:42.484Z,1021.98
2018-10-03T05:28:43.087Z,1022.03
2018-10-03T05:29:43.661Z,1022.09
2018-10-03T05:30:44.336Z,1022.08
2018-10-03T05:31:44.911Z,1022.03
2018-10-03T05:32:45.584Z,1022.05
2018-10-03T05:33:46.161Z,1022.13
2018-10-03T05:34:46.834Z,1022.14
2018-10-03T05:35:47.411Z,1022.12
2018-10-03T05:36:47.985Z,1022.16
2018-10-03T05:37:48.610Z,1022.11
2018-10-03T05:38:54.385Z,1022.14
2018-10-03T05:39:54.959Z,1022.17
2018-10-03T05:40:55.584Z,1022.19
2018-10-03T05:41:56.160Z,1022.15
2018-10-03T05:42:56.734Z,1022.16
2018-10-03T05:43:57.309Z,1022.15
2018-10-03T05:44:57.884Z,1022.14
2018-10-03T05:45:58.510Z,1022.24
2018-10-03T05:46:59.083Z,1022.19
2018-10-03T05:47:59.709Z,1022.19
2018-10-03T05:49:00.286Z,1022.21
2018-10-03T05:50:00.861Z,1022.16
2018-10-03T05:51:01.484Z,1022.09
2018-10-03T05:52:02.060Z,1022.19
2018-10-03T05:53:02.686Z,1022.08
2018-10-03T05:54:03.447Z,1022.13
2018-10-03T05:55:04.021Z,1022.24
2018-10-03T05:56:04.595Z,1022.09
2018-10-03T05:57:05.171Z,1022.13
2018-10-03T05:58:05.748Z,1022.11
2018-10-03T05:59:06.320Z,1022.26
2018-10-03T06:00:11.948Z,1022.13
2018-10-03T06:01:12.524Z,1022.23
2018-10-03T06:02:13.098Z,1022.16
2018-10-03T06:03:13.673Z,1022.23
2018-10-03T06:04:14.298Z,1022.27
2018-10-03T06:05:14.878Z,1022.23
2018-10-03T06:06:15.453Z,1022.28
2018-10-03T06:07:16.028Z,1022.27
2018-10-03T06:08:16.602Z,1022.23
2018-10-03T06:09:17.226Z,1022.27
2018-10-03T06:10:17.800Z,1022.29
2018-10-03T06:11:18.376Z,1022.28
2018-10-03T06:12:19.001Z,1022.33
2018-10-03T06:13:19.578Z,1022.22
2018-10-03T06:14:20.152Z,1022.38
2018-10-03T06:15:20.778Z,1022.29
2018-10-03T06:16:21.350Z,1022.37
2018-10-03T06:17:21.925Z,1022.34
2018-10-03T06:18:22.557Z,1022.29
2018-10-03T06:19:23.075Z,1022.32
2018-10-03T06:20:23.651Z,1022.34
2018-10-03T06:21:24.267Z,1022.35
2018-10-03T06:22:24.843Z,1022.36
2018-10-03T06:23:25.515Z,1022.38
2018-10-03T06:24:26.285Z,1022.37
2018-10-03T06:25:26.862Z,1022.45
2018-10-03T06:26:27.435Z,1022.46
2018-10-03T06:27:28.010Z,1022.43
2018-10-03T06:28:28.636Z,1022.55
2018-10-03T06:29:29.212Z,1022.41
2018-10-03T06:30:29.787Z,1022.52
2018-10-03T06:31:30.412Z,1022.46
2018-10-03T06:32:31.036Z,1022.46
2018-10-03T06:33:31.630Z,1022.46
2018-10-03T06:34:32.186Z,1022.41
2018-10-03T06:35:32.762Z,1022.53
2018-10-03T06:36:33.339Z,1022.45
2018-10-03T06:37:33.914Z,1022.54
2018-10-03T06:38:34.541Z,1022.46
2018-10-03T06:39:35.208Z,1022.45
2018-10-03T06:40:35.686Z,1022.43
2018-10-03T06:41:36.262Z,1022.51
2018-10-03T06:42:36.887Z,1022.51
2018-10-03T06:43:37.513Z,1022.50
2018-10-03T06:44:38.087Z,1022.56
2018-10-03T06:45:38.731Z,1022.55
2018-10-03T06:46:39.236Z,1022.55
2018-10-03T06:47:39.809Z,1022.65
2018-10-03T06:48:40.384Z,1022.58
2018-10-03T06:49:41.007Z,1022.60
2018-10-03T06:50:41.582Z,1022.67
2018-10-03T06:51:42.158Z,1022.63
2018-10-03T06:52:42.732Z,1022.64
2018-10-03T06:53:43.305Z,1022.67
2018-10-03T06:54:43.880Z,1022.67
2018-10-03T06:55:44.455Z,1022.70
2018-10-03T06:56:45.031Z,1022.70
2018-10-03T06:57:45.606Z,1022.74
2018-10-03T06:58:46.180Z,1022.72
2018-10-03T06:59:46.756Z,1022.76
2018-10-03T07:00:47.381Z,1022.81
2018-10-03T07:01:48.807Z,1022.81
2018-10-03T07:02:49.380Z,1022.79
2018-10-03T07:03:49.955Z,1022.84
2018-10-03T07:04:50.530Z,1022.83
2018-10-03T07:05:51.122Z,1022.80
2018-10-03T07:06:51.728Z,1022.86
2018-10-03T07:07:52.353Z,1022.87
2018-10-03T07:08:52.928Z,1022.92
2018-10-03T07:09:53.503Z,1022.91
2018-10-03T07:10:54.078Z,1022.90
2018-10-03T07:11:54.652Z,1023.00
2018-10-03T07:12:55.280Z,1022.93
2018-10-03T07:13:55.850Z,1022.96
2018-10-03T07:14:56.477Z,1022.97
2018-10-03T07:15:57.050Z,1022.97
2018-10-03T07:16:57.626Z,1023.00
2018-10-03T07:17:58.295Z,1022.93
2018-10-03T07:18:58.871Z,1023.05
2018-10-03T07:19:59.533Z,1022.98
2018-10-03T07:21:00.076Z,1022.98
2018-10-03T07:22:00.650Z,1023.02
2018-10-03T07:23:01.224Z,1023.08
2018-10-03T07:24:01.999Z,1023.07
2018-10-03T07:25:02.575Z,1023.08
2018-10-03T07:26:03.214Z,1023.14
2018-10-03T07:27:03.725Z,1023.15
2018-10-03T07:28:04.348Z,1023.15
2018-10-03T07:29:04.921Z,1023.17
2018-10-03T07:30:05.498Z,1023.20
2018-10-03T07:31:06.071Z,1023.20
2018-10-03T07:32:06.648Z,1023.18
2018-10-03T07:33:07.219Z,1023.22
2018-10-03T07:34:07.796Z,1023.30
2018-10-03T07:35:08.371Z,1023.25
2018-10-03T07:36:08.945Z,1023.32
2018-10-03T07:37:09.569Z,1023.36
2018-10-03T07:38:10.150Z,1023.33
2018-10-03T07:39:10.724Z,1023.30
2018-10-03T07:40:11.389Z,1023.35
2018-10-03T07:41:12.003Z,1023.32
2018-10-03T07:42:12.575Z,1023.26
2018-10-03T07:43:13.153Z,1023.28
2018-10-03T07:44:13.726Z,1023.30
2018-10-03T07:45:14.349Z,1023.31
2018-10-03T07:46:14.930Z,1023.38
2018-10-03T07:47:15.550Z,1023.30
2018-10-03T07:48:16.123Z,1023.40
2018-10-03T07:49:16.697Z,1023.32
2018-10-03T07:50:17.271Z,1023.33
2018-10-03T07:51:17.844Z,1023.29
2018-10-03T07:52:18.418Z,1023.35
2018-10-03T07:53:18.995Z,1023.35
2018-10-03T07:54:20.522Z,1023.39
2018-10-03T07:55:21.141Z,1023.35
2018-10-03T07:56:21.767Z,1023.35
2018-10-03T07:57:22.290Z,1023.35
2018-10-03T07:58:22.920Z,1023.43
2018-10-03T07:59:23.539Z,1023.37
2018-10-03T08:00:24.117Z,1023.45
2018-10-03T08:01:24.691Z,1023.44
2018-10-03T08:02:25.306Z,1023.47
2018-10-03T08:03:25.879Z,1023.46
2018-10-03T08:04:26.505Z,1023.46
2018-10-03T08:05:27.079Z,1023.47
2018-10-03T08:06:27.702Z,1023.38
2018-10-03T08:07:28.278Z,1023.50
2018-10-03T08:08:28.852Z,1023.43
2018-10-03T08:09:29.477Z,1023.47
2018-10-03T08:10:30.051Z,1023.43
2018-10-03T08:11:30.624Z,1023.47
2018-10-03T08:12:31.200Z,1023.42
2018-10-03T08:13:31.774Z,1023.48
2018-10-03T08:14:32.347Z,1023.44
2018-10-03T08:15:32.922Z,1023.40
2018-10-03T08:16:33.497Z,1023.48
2018-10-03T08:17:34.121Z,1023.44
2018-10-03T08:18:34.695Z,1023.41
2018-10-03T08:19:35.268Z,1023.49
2018-10-03T08:20:35.851Z,1023.46
2018-10-03T08:21:36.419Z,1023.55
2018-10-03T08:22:37.047Z,1023.55
2018-10-03T08:23:37.619Z,1023.53
2018-10-03T08:24:38.251Z,1023.55
2018-10-03T08:25:38.817Z,1023.58
2018-10-03T08:26:39.391Z,1023.55
2018-10-03T08:27:45.120Z,1023.63
2018-10-03T08:28:45.695Z,1023.57
2018-10-03T08:29:46.273Z,1023.56
2018-10-03T08:30:46.888Z,1023.63
2018-10-03T08:31:47.462Z,1023.65
2018-10-03T08:32:48.187Z,1023.63
2018-10-03T08:33:48.613Z,1023.61
2018-10-03T08:34:49.187Z,1023.57
2018-10-03T08:35:49.762Z,1023.56
2018-10-03T08:36:50.386Z,1023.61
2018-10-03T08:37:50.960Z,1023.58
2018-10-03T08:38:51.536Z,1023.56
2018-10-03T08:39:57.163Z,1023.57
2018-10-03T08:40:57.801Z,1023.55
2018-10-03T08:41:58.360Z,1023.61
2018-10-03T08:42:59.088Z,1023.63
2018-10-03T08:43:59.706Z,1023.63
2018-10-03T08:45:00.282Z,1023.64
2018-10-03T08:46:00.856Z,1023.59
2018-10-03T08:47:01.431Z,1023.55
2018-10-03T08:48:02.012Z,1023.61
2018-10-03T08:49:02.583Z,1023.62
2018-10-03T08:50:03.159Z,1023.65
2018-10-03T08:51:03.783Z,1023.68
2018-10-03T08:52:04.416Z,1023.69
2018-10-03T08:53:04.933Z,1023.69
2018-10-03T08:54:05.558Z,1023.68
2018-10-03T08:55:06.134Z,1023.65
2018-10-03T08:56:06.711Z,1023.68
2018-10-03T08:57:07.285Z,1023.70
2018-10-03T08:58:07.997Z,1023.78
2018-10-03T08:59:08.484Z,1023.75
2018-10-03T09:00:09.258Z,1023.76
2018-10-03T09:01:09.835Z,1023.76
2018-10-03T09:02:10.409Z,1023.79
2018-10-03T09:03:10.985Z,1023.77
2018-10-03T09:04:11.560Z,1023.74
2018-10-03T09:05:12.138Z,1023.72
2018-10-03T09:06:12.713Z,1023.77
2018-10-03T09:07:13.290Z,1023.77
2018-10-03T09:08:13.864Z,1023.69
2018-10-03T09:09:19.441Z,1023.75
2018-10-03T09:10:20.017Z,1023.72
2018-10-03T09:11:20.641Z,1023.68
2018-10-03T09:12:21.215Z,1023.78
2018-10-03T09:13:21.789Z,1023.79
2018-10-03T09:14:22.367Z,1023.67
2018-10-03T09:15:22.944Z,1023.80
2018-10-03T09:16:23.518Z,1023.73
2018-10-03T09:17:24.143Z,1023.72
2018-10-03T09:18:24.770Z,1023.72
2018-10-03T09:19:25.344Z,1023.75
2018-10-03T09:20:25.919Z,1023.69
2018-10-03T09:21:26.560Z,1023.69
2018-10-03T09:22:27.076Z,1023.71
2018-10-03T09:23:27.694Z,1023.73
2018-10-03T09:24:28.268Z,1023.75
2018-10-03T09:25:28.845Z,1023.67
2018-10-03T09:26:29.422Z,1023.69
2018-10-03T09:27:29.997Z,1023.74
2018-10-03T09:28:30.598Z,1023.69
2018-10-03T09:29:31.198Z,1023.71
2018-10-03T09:30:31.774Z,1023.59
2018-10-03T09:31:32.351Z,1023.73
2018-10-03T09:32:32.927Z,1023.69
2018-10-03T09:33:33.704Z,1023.77
2018-10-03T09:34:34.333Z,1023.76
2018-10-03T09:35:34.908Z,1023.74
2018-10-03T09:36:35.484Z,1023.80
2018-10-03T09:37:36.060Z,1023.75
2018-10-03T09:38:36.635Z,1023.78
2018-10-03T09:39:37.323Z,1023.75
2018-10-03T09:40:37.837Z,1023.74
2018-10-03T09:41:38.415Z,1023.76
2018-10-03T09:42:38.990Z,1023.78
2018-10-03T09:43:39.572Z,1023.73
2018-10-03T09:44:40.167Z,1023.76
2018-10-03T09:45:40.717Z,1023.77
2018-10-03T09:46:41.343Z,1023.78
2018-10-03T09:47:41.918Z,1023.80
2018-10-03T09:48:42.495Z,1023.84
2018-10-03T09:49:43.075Z,1023.77
2018-10-03T09:50:43.845Z,1023.85
2018-10-03T09:51:44.421Z,1023.76
2018-10-03T09:52:45.000Z,1023.85
2018-10-03T09:53:45.571Z,1023.78
2018-10-03T09:54:46.150Z,1023.80
2018-10-03T09:55:46.773Z,1023.86
2018-10-03T09:56:47.354Z,1023.75
2018-10-03T09:57:47.928Z,1023.80
2018-10-03T09:58:48.500Z,1023.74
2018-10-03T09:59:49.077Z,1023.74
2018-10-03T10:00:49.717Z,1023.71
2018-10-03T10:01:55.287Z,1023.72
2018-10-03T10:02:55.913Z,1023.80
2018-10-03T10:03:56.492Z,1023.79
2018-10-03T10:04:57.108Z,1023.78
2018-10-03T10:05:57.685Z,1023.77
2018-10-03T10:06:58.260Z,1023.77
2018-10-03T10:07:58.838Z,1023.77
2018-10-03T10:08:59.465Z,1023.73
2018-10-03T10:10:00.047Z,1023.70
2018-10-03T10:11:00.664Z,1023.75
2018-10-03T10:12:01.239Z,1023.68
2018-10-03T10:13:01.815Z,1023.78
2018-10-03T10:14:02.489Z,1023.79
2018-10-03T10:15:03.065Z,1023.72
2018-10-03T10:16:03.641Z,1023.77
2018-10-03T10:17:04.219Z,1023.77
2018-10-03T10:18:04.796Z,1023.80
2018-10-03T10:19:05.375Z,1023.78
2018-10-03T10:20:06.039Z,1023.79
2018-10-03T10:21:06.665Z,1023.77
2018-10-03T10:22:07.240Z,1023.80
2018-10-03T10:23:07.814Z,1023.73
2018-10-03T10:24:08.392Z,1023.84
2018-10-03T10:25:08.968Z,1023.79
2018-10-03T10:26:09.543Z,1023.69
2018-10-03T10:27:10.122Z,1023.70
2018-10-03T10:28:10.747Z,1023.76
2018-10-03T10:29:11.323Z,1023.74
2018-10-03T10:30:11.903Z,1023.68
2018-10-03T10:31:12.531Z,1023.77
2018-10-03T10:32:13.179Z,1023.74
2018-10-03T10:33:13.717Z,1023.73
2018-10-03T10:34:14.255Z,1023.76
2018-10-03T10:35:14.830Z,1023.72
2018-10-03T10:36:15.409Z,1023.74
2018-10-03T10:37:16.035Z,1023.74
2018-10-03T10:38:16.656Z,1023.69
2018-10-03T10:39:17.288Z,1023.67
2018-10-03T10:40:17.991Z,1023.70
2018-10-03T10:41:18.564Z,1023.71
2018-10-03T10:42:19.013Z,1023.75
2018-10-03T10:43:19.691Z,1023.74
2018-10-03T10:44:20.164Z,1023.83
2018-10-03T10:45:20.740Z,1023.79
2018-10-03T10:46:22.169Z,1023.75
2018-10-03T10:47:22.744Z,1023.80
2018-10-03T10:48:23.323Z,1023.73
2018-10-03T10:49:23.900Z,1023.73
2018-10-03T10:50:24.613Z,1023.78
2018-10-03T10:51:25.102Z,1023.74
2018-10-03T10:52:25.677Z,1023.67
2018-10-03T10:53:26.257Z,1023.70
2018-10-03T10:54:26.830Z,1023.72
2018-10-03T10:55:27.409Z,1023.66
2018-10-03T10:56:27.985Z,1023.69
2018-10-03T10:57:28.563Z,1023.62
2018-10-03T10:58:29.137Z,1023.66
2018-10-03T10:59:29.763Z,1023.67
2018-10-03T11:00:30.341Z,1023.64
2018-10-03T11:01:30.918Z,1023.63
2018-10-03T11:02:31.497Z,1023.59
2018-10-03T11:03:32.071Z,1023.65
2018-10-03T11:04:32.648Z,1023.67
2018-10-03T11:05:33.226Z,1023.60
2018-10-03T11:06:33.857Z,1023.68
2018-10-03T11:07:34.431Z,1023.68
2018-10-03T11:08:35.009Z,1023.57
2018-10-03T11:09:35.629Z,1023.62
2018-10-03T11:10:36.205Z,1023.60
2018-10-03T11:11:36.782Z,1023.56
2018-10-03T11:12:37.412Z,1023.63
2018-10-03T11:13:37.985Z,1023.60
2018-10-03T11:14:38.562Z,1023.59
2018-10-03T11:15:39.237Z,1023.56
2018-10-03T11:16:39.769Z,1023.51
2018-10-03T11:17:40.344Z,1023.52
2018-10-03T11:18:40.919Z,1023.53
2018-10-03T11:19:41.495Z,1023.54
2018-10-03T11:20:42.072Z,1023.49
2018-10-03T11:21:42.649Z,1023.57
2018-10-03T11:22:43.227Z,1023.54
2018-10-03T11:23:44.029Z,1023.56
2018-10-03T11:24:44.594Z,1023.59
2018-10-03T11:25:45.008Z,1023.49
2018-10-03T11:26:45.584Z,1023.51
2018-10-03T11:27:46.161Z,1023.58
2018-10-03T11:28:46.736Z,1023.52
2018-10-03T11:29:47.311Z,1023.55
2018-10-03T11:30:47.937Z,1023.48
2018-10-03T11:31:49.515Z,1023.50
2018-10-03T11:32:50.095Z,1023.55
2018-10-03T11:33:50.671Z,1023.46
2018-10-03T11:34:51.248Z,1023.51
2018-10-03T11:35:51.925Z,1023.54
2018-10-03T11:36:52.503Z,1023.57
2018-10-03T11:37:53.081Z,1023.50
2018-10-03T11:38:53.657Z,1023.50
2018-10-03T11:39:54.235Z,1023.51
2018-10-03T11:40:54.810Z,1023.45
2018-10-03T11:41:55.388Z,1023.47
2018-10-03T11:42:55.969Z,1023.46
2018-10-03T11:43:56.675Z,1023.47
2018-10-03T11:44:57.169Z,1023.39
2018-10-03T11:45:57.745Z,1023.50
2018-10-03T11:46:58.326Z,1023.50
2018-10-03T11:47:58.900Z,1023.45
2018-10-03T11:49:00.327Z,1023.38
2018-10-03T11:50:00.955Z,1023.50
2018-10-03T11:51:01.531Z,1023.41
2018-10-03T11:52:02.159Z,1023.37
2018-10-03T11:53:02.739Z,1023.37
2018-10-03T11:54:03.314Z,1023.40
2018-10-03T11:55:03.894Z,1023.40
2018-10-03T11:56:04.468Z,1023.33
2018-10-03T11:57:05.113Z,1023.35
2018-10-03T11:58:05.619Z,1023.40
2018-10-03T11:59:06.197Z,1023.39
2018-10-03T12:00:06.823Z,1023.37
2018-10-03T12:01:07.402Z,1023.37
2018-10-03T12:02:07.979Z,1023.33
2018-10-03T12:03:08.612Z,1023.35
2018-10-03T12:04:09.135Z,1023.40
2018-10-03T12:05:10.560Z,1023.34
2018-10-03T12:06:11.135Z,1023.36
2018-10-03T12:07:11.711Z,1023.36
2018-10-03T12:08:12.332Z,1023.34
2018-10-03T12:09:13.003Z,1023.35
2018-10-03T12:10:13.583Z,1023.28
2018-10-03T12:11:14.153Z,1023.22
2018-10-03T12:12:14.778Z,1023.28
2018-10-03T12:13:15.355Z,1023.30
2018-10-03T12:14:15.942Z,1023.28
2018-10-03T12:15:16.517Z,1023.33
2018-10-03T12:16:17.137Z,1023.30
2018-10-03T12:17:17.712Z,1023.36
2018-10-03T12:18:18.289Z,1023.30
2018-10-03T12:19:18.871Z,1023.32